sensor_id;sensor_type;location;lat;lon;timestamp;pressure;altitude;pressure_sealevel;temperature;humidity
7774;BME280;3931;42.260;23.116;2023-02-13T00:02:03;97230.59;;;5.30;77.50
7774;BME280;3931;42.260;23.116;2023-02-13T00:04:29;97234.91;;;5.46;77.53
7774;BME280;3931;42.260;23.116;2023-02-13T00:06:55;97237.22;;;5.09;77.76
7774;BME280;3931;42.260;23.116;2023-02-13T00:09:21;97235.59;;;5.43;79.36
7774;BME280;3931;42.260;23.116;2023-02-13T00:11:47;97235.09;;;5.95;76.18
7774;BME280;3931;42.260;23.116;2023-02-13T00:14:13;97236.03;;;5.45;77.62
7774;BME280;3931;42.260;23.116;2023-02-13T00:16:39;97238.03;;;5.29;79.37
7774;BME280;3931;42.260;23.116;2023-02-13T00:19:06;97235.50;;;6.16;79.26
7774;BME280;3931;42.260;23.116;2023-02-13T00:21:32;97237.44;;;6.61;74.04
7774;BME280;3931;42.260;23.116;2023-02-13T00:23:58;97236.47;;;6.73;72.95
7774;BME280;3931;42.260;23.116;2023-02-13T00:26:24;97232.44;;;6.67;76.22
7774;BME280;3931;42.260;23.116;2023-02-13T00:28:51;97242.38;;;7.01;73.66
7774;BME280;3931;42.260;23.116;2023-02-13T00:31:19;97236.84;;;6.97;74.28
7774;BME280;3931;42.260;23.116;2023-02-13T00:33:45;97229.69;;;7.19;71.83
7774;BME280;3931;42.260;23.116;2023-02-13T00:36:13;97234.09;;;6.97;70.89
7774;BME280;3931;42.260;23.116;2023-02-13T00:38:40;97237.53;;;6.91;70.92
7774;BME280;3931;42.260;23.116;2023-02-13T00:41:07;97237.88;;;6.18;79.38
7774;BME280;3931;42.260;23.116;2023-02-13T00:43:34;97235.34;;;7.03;73.95
7774;BME280;3931;42.260;23.116;2023-02-13T00:46:00;97226.22;;;7.25;71.80
7774;BME280;3931;42.260;23.116;2023-02-13T00:48:28;97234.09;;;6.71;71.05
7774;BME280;3931;42.260;23.116;2023-02-13T00:50:54;97227.88;;;6.51;76.80
7774;BME280;3931;42.260;23.116;2023-02-13T00:53:22;97239.88;;;6.66;75.39
7774;BME280;3931;42.260;23.116;2023-02-13T00:55:49;97229.81;;;6.51;77.73
7774;BME280;3931;42.260;23.116;2023-02-13T00:58:16;97231.53;;;6.85;74.68
7774;BME280;3931;42.260;23.116;2023-02-13T01:00:43;97248.41;;;7.10;72.58
7774;BME280;3931;42.260;23.116;2023-02-13T01:03:09;97249.75;;;7.19;71.49
7774;BME280;3931;42.260;23.116;2023-02-13T01:05:35;97249.53;;;7.05;71.03
7774;BME280;3931;42.260;23.116;2023-02-13T01:08:01;97244.94;;;6.87;73.04
7774;BME280;3931;42.260;23.116;2023-02-13T01:10:27;97246.38;;;6.54;73.93
7774;BME280;3931;42.260;23.116;2023-02-13T01:12:54;97258.91;;;6.52;74.34
7774;BME280;3931;42.260;23.116;2023-02-13T01:15:20;97259.38;;;6.80;73.35
7774;BME280;3931;42.260;23.116;2023-02-13T01:17:46;97254.31;;;6.37;73.02
7774;BME280;3931;42.260;23.116;2023-02-13T01:20:13;97252.16;;;6.04;79.18
7774;BME280;3931;42.260;23.116;2023-02-13T01:22:39;97261.09;;;6.20;83.36
7774;BME280;3931;42.260;23.116;2023-02-13T01:25:08;97254.75;;;6.88;76.25
7774;BME280;3931;42.260;23.116;2023-02-13T01:27:34;97259.91;;;6.89;72.80
7774;BME280;3931;42.260;23.116;2023-02-13T01:30:03;97262.72;;;6.93;73.57
7774;BME280;3931;42.260;23.116;2023-02-13T01:32:30;97265.28;;;6.56;73.23
7774;BME280;3931;42.260;23.116;2023-02-13T01:34:56;97255.28;;;5.64;80.02
7774;BME280;3931;42.260;23.116;2023-02-13T01:37:22;97254.38;;;5.41;83.13
7774;BME280;3931;42.260;23.116;2023-02-13T01:39:48;97255.34;;;5.49;83.01
7774;BME280;3931;42.260;23.116;2023-02-13T01:42:16;97255.53;;;5.78;81.89
7774;BME280;3931;42.260;23.116;2023-02-13T01:44:48;97255.03;;;6.34;77.46
7774;BME280;3931;42.260;23.116;2023-02-13T01:47:19;97262.09;;;6.12;78.03
7774;BME280;3931;42.260;23.116;2023-02-13T01:49:45;97265.94;;;6.08;76.87
7774;BME280;3931;42.260;23.116;2023-02-13T01:52:12;97266.94;;;6.19;77.53
7774;BME280;3931;42.260;23.116;2023-02-13T01:54:39;97265.00;;;6.19;78.25
7774;BME280;3931;42.260;23.116;2023-02-13T01:57:08;97257.22;;;6.93;75.14
7774;BME280;3931;42.260;23.116;2023-02-13T01:59:41;97260.38;;;6.95;72.31
7774;BME280;3931;42.260;23.116;2023-02-13T02:02:09;97271.06;;;6.74;71.33
7774;BME280;3931;42.260;23.116;2023-02-13T02:04:37;97274.84;;;5.82;75.21
7774;BME280;3931;42.260;23.116;2023-02-13T02:07:08;97271.09;;;5.71;80.21
7774;BME280;3931;42.260;23.116;2023-02-13T02:09:37;97274.66;;;5.91;79.05
7774;BME280;3931;42.260;23.116;2023-02-13T02:12:09;97272.53;;;6.03;78.20
7774;BME280;3931;42.260;23.116;2023-02-13T02:14:38;97271.97;;;5.94;79.90
7774;BME280;3931;42.260;23.116;2023-02-13T02:17:05;97274.75;;;6.17;77.53
7774;BME280;3931;42.260;23.116;2023-02-13T02:19:38;97284.22;;;5.81;79.86
7774;BME280;3931;42.260;23.116;2023-02-13T02:25:31;97278.88;;;5.50;81.28
7774;BME280;3931;42.260;23.116;2023-02-13T02:34:26;97286.84;;;6.12;82.31
7774;BME280;3931;42.260;23.116;2023-02-13T02:37:05;97296.53;;;6.06;81.00
7774;BME280;3931;42.260;23.116;2023-02-13T02:39:43;97296.41;;;5.26;84.81
7774;BME280;3931;42.260;23.116;2023-02-13T02:42:19;97302.19;;;4.90;87.36
7774;BME280;3931;42.260;23.116;2023-02-13T02:44:53;97282.94;;;4.24;94.33
7774;BME280;3931;42.260;23.116;2023-02-13T02:47:24;97245.56;;;3.73;100.00
7774;BME280;3931;42.260;23.116;2023-02-13T02:50:22;97248.00;;;4.05;99.84
7774;BME280;3931;42.260;23.116;2023-02-13T02:52:58;97251.06;;;3.60;100.00
7774;BME280;3931;42.260;23.116;2023-02-13T02:55:36;97239.28;;;3.72;100.00
7774;BME280;3931;42.260;23.116;2023-02-13T02:58:09;97226.72;;;3.99;100.00
7774;BME280;3931;42.260;23.116;2023-02-13T03:00:56;97234.41;;;3.38;100.00
7774;BME280;3931;42.260;23.116;2023-02-13T03:03:42;97223.56;;;3.69;100.00
7774;BME280;3931;42.260;23.116;2023-02-13T03:06:32;97267.28;;;4.71;95.47
7774;BME280;3931;42.260;23.116;2023-02-13T03:09:05;97290.44;;;4.89;89.49
7774;BME280;3931;42.260;23.116;2023-02-13T03:11:54;97293.53;;;4.41;90.30
7774;BME280;3931;42.260;23.116;2023-02-13T03:14:38;97278.03;;;4.17;95.29
7774;BME280;3931;42.260;23.116;2023-02-13T03:17:05;97283.19;;;4.19;95.38
7774;BME280;3931;42.260;23.116;2023-02-13T03:19:59;97271.84;;;4.05;99.83
7774;BME280;3931;42.260;23.116;2023-02-13T03:23:05;97279.84;;;4.25;97.04
7774;BME280;3931;42.260;23.116;2023-02-13T03:25:37;97260.84;;;4.17;97.85
7774;BME280;3931;42.260;23.116;2023-02-13T03:28:14;97281.88;;;3.85;98.98
7774;BME280;3931;42.260;23.116;2023-02-13T03:31:20;97288.13;;;3.58;97.20
7774;BME280;3931;42.260;23.116;2023-02-13T03:33:55;97256.41;;;3.69;100.00
7774;BME280;3931;42.260;23.116;2023-02-13T03:36:32;97244.31;;;3.42;100.00
7774;BME280;3931;42.260;23.116;2023-02-13T03:39:23;97227.63;;;3.20;100.00
7774;BME280;3931;42.260;23.116;2023-02-13T03:41:57;97249.72;;;3.82;100.00
7774;BME280;3931;42.260;23.116;2023-02-13T03:44:30;97265.72;;;3.52;100.00
7774;BME280;3931;42.260;23.116;2023-02-13T03:47:00;97223.44;;;2.34;100.00
7774;BME280;3931;42.260;23.116;2023-02-13T03:49:30;97165.09;;;3.18;100.00
7774;BME280;3931;42.260;23.116;2023-02-13T03:52:22;97186.97;;;2.78;100.00
7774;BME280;3931;42.260;23.116;2023-02-13T03:54:53;97212.63;;;3.14;100.00
7774;BME280;3931;42.260;23.116;2023-02-13T03:57:40;97266.84;;;4.38;100.00
7774;BME280;3931;42.260;23.116;2023-02-13T04:00:27;97321.41;;;4.74;88.73
7774;BME280;3931;42.260;23.116;2023-02-13T04:03:00;97340.13;;;4.57;83.60
7774;BME280;3931;42.260;23.116;2023-02-13T04:05:33;97340.59;;;4.59;82.81
7774;BME280;3931;42.260;23.116;2023-02-13T04:08:01;97351.81;;;4.69;81.97
7774;BME280;3931;42.260;23.116;2023-02-13T04:10:32;97352.34;;;4.16;86.29
7774;BME280;3931;42.260;23.116;2023-02-13T04:13:07;97345.16;;;3.56;91.72
7774;BME280;3931;42.260;23.116;2023-02-13T04:15:37;97348.31;;;4.25;88.50
7774;BME280;3931;42.260;23.116;2023-02-13T04:18:09;97348.63;;;4.08;85.98
7774;BME280;3931;42.260;23.116;2023-02-13T04:20:37;97345.59;;;4.41;83.90
7774;BME280;3931;42.260;23.116;2023-02-13T04:23:04;97343.72;;;4.29;85.77
7774;BME280;3931;42.260;23.116;2023-02-13T04:25:32;97348.59;;;4.36;83.15
7774;BME280;3931;42.260;23.116;2023-02-13T04:27:58;97338.78;;;3.80;84.22
7774;BME280;3931;42.260;23.116;2023-02-13T04:30:24;97321.16;;;3.77;94.91
7774;BME280;3931;42.260;23.116;2023-02-13T04:32:50;97319.63;;;3.80;94.45
7774;BME280;3931;42.260;23.116;2023-02-13T04:35:17;97319.00;;;3.98;94.50
7774;BME280;3931;42.260;23.116;2023-02-13T04:37:43;97327.09;;;4.22;92.19
7774;BME280;3931;42.260;23.116;2023-02-13T04:40:10;97327.66;;;4.43;88.80
7774;BME280;3931;42.260;23.116;2023-02-13T04:42:36;97330.28;;;4.24;88.00
7774;BME280;3931;42.260;23.116;2023-02-13T04:45:03;97332.06;;;4.32;87.22
7774;BME280;3931;42.260;23.116;2023-02-13T04:47:29;97342.03;;;4.25;89.48
7774;BME280;3931;42.260;23.116;2023-02-13T04:49:55;97343.69;;;4.57;86.38
7774;BME280;3931;42.260;23.116;2023-02-13T04:52:21;97360.22;;;4.76;82.37
7774;BME280;3931;42.260;23.116;2023-02-13T04:54:47;97355.88;;;4.60;81.71
7774;BME280;3931;42.260;23.116;2023-02-13T04:57:13;97352.22;;;3.97;85.76
7774;BME280;3931;42.260;23.116;2023-02-13T04:59:40;97359.34;;;4.29;85.64
7774;BME280;3931;42.260;23.116;2023-02-13T05:02:06;97364.78;;;4.41;83.40
7774;BME280;3931;42.260;23.116;2023-02-13T05:04:32;97374.31;;;4.04;83.84
7774;BME280;3931;42.260;23.116;2023-02-13T05:06:58;97377.44;;;3.90;82.30
7774;BME280;3931;42.260;23.116;2023-02-13T05:09:25;97377.31;;;3.87;84.64
7774;BME280;3931;42.260;23.116;2023-02-13T05:11:51;97376.38;;;4.22;80.61
7774;BME280;3931;42.260;23.116;2023-02-13T05:14:18;97375.75;;;4.13;82.74
7774;BME280;3931;42.260;23.116;2023-02-13T05:16:44;97371.97;;;4.18;81.00
7774;BME280;3931;42.260;23.116;2023-02-13T05:19:10;97370.91;;;4.22;80.02
7774;BME280;3931;42.260;23.116;2023-02-13T05:21:36;97358.31;;;4.33;77.63
7774;BME280;3931;42.260;23.116;2023-02-13T05:24:21;97370.06;;;4.06;77.19
7774;BME280;3931;42.260;23.116;2023-02-13T05:26:47;97377.78;;;4.16;76.57
7774;BME280;3931;42.260;23.116;2023-02-13T05:29:13;97374.00;;;4.49;73.79
7774;BME280;3931;42.260;23.116;2023-02-13T05:31:48;97382.59;;;4.19;73.14
7774;BME280;3931;42.260;23.116;2023-02-13T05:34:14;97379.28;;;4.14;74.93
7774;BME280;3931;42.260;23.116;2023-02-13T05:36:41;97383.41;;;4.35;74.01
7774;BME280;3931;42.260;23.116;2023-02-13T05:39:07;97386.84;;;4.32;74.46
7774;BME280;3931;42.260;23.116;2023-02-13T05:41:33;97394.31;;;3.92;75.47
7774;BME280;3931;42.260;23.116;2023-02-13T05:43:59;97396.84;;;3.73;78.27
7774;BME280;3931;42.260;23.116;2023-02-13T05:46:25;97394.84;;;3.98;80.07
7774;BME280;3931;42.260;23.116;2023-02-13T05:48:52;97397.00;;;4.04;80.11
7774;BME280;3931;42.260;23.116;2023-02-13T05:51:18;97406.06;;;4.20;77.67
7774;BME280;3931;42.260;23.116;2023-02-13T05:53:44;97410.06;;;4.23;76.26
7774;BME280;3931;42.260;23.116;2023-02-13T05:56:10;97404.72;;;4.14;76.77
7774;BME280;3931;42.260;23.116;2023-02-13T05:58:36;97397.81;;;4.32;75.84
7774;BME280;3931;42.260;23.116;2023-02-13T06:01:03;97408.44;;;4.50;75.74
7774;BME280;3931;42.260;23.116;2023-02-13T06:03:30;97410.16;;;4.54;74.46
7774;BME280;3931;42.260;23.116;2023-02-13T06:05:58;97417.63;;;4.85;73.61
7774;BME280;3931;42.260;23.116;2023-02-13T06:08:24;97412.25;;;4.88;73.21
7774;BME280;3931;42.260;23.116;2023-02-13T06:10:51;97406.56;;;4.81;73.97
7774;BME280;3931;42.260;23.116;2023-02-13T06:13:17;97415.69;;;4.85;75.47
7774;BME280;3931;42.260;23.116;2023-02-13T06:15:44;97414.81;;;4.97;75.13
7774;BME280;3931;42.260;23.116;2023-02-13T06:18:10;97419.06;;;4.94;75.15
7774;BME280;3931;42.260;23.116;2023-02-13T06:20:37;97421.44;;;5.11;74.10
7774;BME280;3931;42.260;23.116;2023-02-13T06:23:03;97424.63;;;5.29;73.53
7774;BME280;3931;42.260;23.116;2023-02-13T06:25:29;97430.81;;;5.26;74.21
7774;BME280;3931;42.260;23.116;2023-02-13T06:27:56;97435.59;;;5.29;73.68
7774;BME280;3931;42.260;23.116;2023-02-13T06:30:22;97432.50;;;5.46;72.80
7774;BME280;3931;42.260;23.116;2023-02-13T06:32:48;97447.91;;;5.35;74.11
7774;BME280;3931;42.260;23.116;2023-02-13T06:35:15;97440.91;;;5.06;76.05
7774;BME280;3931;42.260;23.116;2023-02-13T06:37:41;97444.88;;;5.09;77.07
7774;BME280;3931;42.260;23.116;2023-02-13T06:40:10;97439.94;;;5.14;76.95
7774;BME280;3931;42.260;23.116;2023-02-13T06:42:36;97440.47;;;5.20;78.20
7774;BME280;3931;42.260;23.116;2023-02-13T06:45:03;97425.56;;;5.52;75.85
7774;BME280;3931;42.260;23.116;2023-02-13T06:47:29;97427.09;;;5.50;76.75
7774;BME280;3931;42.260;23.116;2023-02-13T06:49:56;97427.28;;;5.41;77.70
7774;BME280;3931;42.260;23.116;2023-02-13T06:52:22;97426.03;;;5.23;78.04
7774;BME280;3931;42.260;23.116;2023-02-13T06:54:48;97431.31;;;4.85;79.03
7774;BME280;3931;42.260;23.116;2023-02-13T06:57:15;97431.97;;;5.09;77.64
7774;BME280;3931;42.260;23.116;2023-02-13T06:59:41;97425.06;;;5.00;78.47
7774;BME280;3931;42.260;23.116;2023-02-13T07:02:08;97422.63;;;5.61;74.98
7774;BME280;3931;42.260;23.116;2023-02-13T07:04:34;97422.84;;;5.37;75.66
7774;BME280;3931;42.260;23.116;2023-02-13T07:07:00;97435.06;;;5.55;74.73
7774;BME280;3931;42.260;23.116;2023-02-13T07:09:26;97438.91;;;5.69;73.07
7774;BME280;3931;42.260;23.116;2023-02-13T07:11:52;97440.91;;;6.23;71.99
7774;BME280;3931;42.260;23.116;2023-02-13T07:14:19;97437.59;;;5.63;71.79
7774;BME280;3931;42.260;23.116;2023-02-13T07:16:45;97434.59;;;5.68;73.01
7774;BME280;3931;42.260;23.116;2023-02-13T07:19:11;97441.00;;;5.92;73.40
7774;BME280;3931;42.260;23.116;2023-02-13T07:21:37;97448.13;;;5.77;73.06
7774;BME280;3931;42.260;23.116;2023-02-13T07:24:04;97443.16;;;6.36;70.94
7774;BME280;3931;42.260;23.116;2023-02-13T07:26:30;97435.56;;;6.30;71.15
7774;BME280;3931;42.260;23.116;2023-02-13T07:28:56;97440.34;;;6.52;70.59
7774;BME280;3931;42.260;23.116;2023-02-13T07:31:23;97444.69;;;6.53;69.37
7774;BME280;3931;42.260;23.116;2023-02-13T07:33:49;97445.31;;;6.66;69.84
7774;BME280;3931;42.260;23.116;2023-02-13T07:36:15;97446.13;;;6.66;70.79
7774;BME280;3931;42.260;23.116;2023-02-13T07:38:41;97451.63;;;6.66;71.09
7774;BME280;3931;42.260;23.116;2023-02-13T07:41:07;97441.41;;;6.86;70.25
7774;BME280;3931;42.260;23.116;2023-02-13T07:43:33;97447.41;;;6.91;70.86
7774;BME280;3931;42.260;23.116;2023-02-13T07:46:02;97446.56;;;6.68;71.82
7774;BME280;3931;42.260;23.116;2023-02-13T07:48:29;97444.38;;;6.77;71.16
7774;BME280;3931;42.260;23.116;2023-02-13T07:50:59;97434.34;;;6.27;74.63
7774;BME280;3931;42.260;23.116;2023-02-13T07:53:25;97436.38;;;6.30;75.65
7774;BME280;3931;42.260;23.116;2023-02-13T07:55:51;97435.22;;;6.31;76.32
7774;BME280;3931;42.260;23.116;2023-02-13T07:58:17;97437.22;;;6.34;75.55
7774;BME280;3931;42.260;23.116;2023-02-13T08:00:43;97429.56;;;5.55;80.67
7774;BME280;3931;42.260;23.116;2023-02-13T08:03:10;97425.31;;;5.57;81.95
7774;BME280;3931;42.260;23.116;2023-02-13T08:05:36;97418.59;;;5.55;85.04
7774;BME280;3931;42.260;23.116;2023-02-13T08:08:03;97421.56;;;5.65;83.63
7774;BME280;3931;42.260;23.116;2023-02-13T08:10:29;97415.41;;;5.53;84.75
7774;BME280;3931;42.260;23.116;2023-02-13T08:13:14;97418.22;;;6.26;80.00
7774;BME280;3931;42.260;23.116;2023-02-13T08:15:41;97422.34;;;6.96;74.99
7774;BME280;3931;42.260;23.116;2023-02-13T08:18:09;97417.34;;;7.24;74.16
7774;BME280;3931;42.260;23.116;2023-02-13T08:20:36;97427.22;;;8.04;70.07
7774;BME280;3931;42.260;23.116;2023-02-13T08:23:03;97419.72;;;8.97;64.94
7774;BME280;3931;42.260;23.116;2023-02-13T08:25:29;97421.00;;;9.50;63.00
7774;BME280;3931;42.260;23.116;2023-02-13T08:27:57;97426.31;;;10.35;58.16
7774;BME280;3931;42.260;23.116;2023-02-13T08:30:23;97418.19;;;10.77;55.51
7774;BME280;3931;42.260;23.116;2023-02-13T08:32:49;97419.03;;;10.88;54.75
7774;BME280;3931;42.260;23.116;2023-02-13T08:35:15;97423.22;;;10.47;55.71
7774;BME280;3931;42.260;23.116;2023-02-13T08:37:42;97417.44;;;10.90;54.97
7774;BME280;3931;42.260;23.116;2023-02-13T08:40:09;97411.34;;;10.43;54.95
7774;BME280;3931;42.260;23.116;2023-02-13T08:42:35;97409.44;;;9.38;57.88
7774;BME280;3931;42.260;23.116;2023-02-13T08:45:01;97411.06;;;8.99;60.27
7774;BME280;3931;42.260;23.116;2023-02-13T08:47:27;97406.78;;;10.06;57.67
7774;BME280;3931;42.260;23.116;2023-02-13T08:49:53;97407.19;;;10.08;56.57
7774;BME280;3931;42.260;23.116;2023-02-13T08:52:19;97403.31;;;10.13;55.87
7774;BME280;3931;42.260;23.116;2023-02-13T08:54:46;97406.59;;;10.40;55.55
7774;BME280;3931;42.260;23.116;2023-02-13T08:57:12;97402.03;;;10.03;55.68
7774;BME280;3931;42.260;23.116;2023-02-13T08:59:38;97403.72;;;10.15;56.06
7774;BME280;3931;42.260;23.116;2023-02-13T09:02:04;97407.00;;;9.77;56.26
7774;BME280;3931;42.260;23.116;2023-02-13T09:04:30;97402.91;;;9.60;58.25
7774;BME280;3931;42.260;23.116;2023-02-13T09:06:56;97402.00;;;8.61;61.71
7774;BME280;3931;42.260;23.116;2023-02-13T09:09:22;97399.44;;;8.79;62.40
7774;BME280;3931;42.260;23.116;2023-02-13T09:11:48;97397.84;;;9.22;62.24
7774;BME280;3931;42.260;23.116;2023-02-13T09:14:16;97399.63;;;9.98;58.17
7774;BME280;3931;42.260;23.116;2023-02-13T09:16:42;97399.50;;;9.77;57.54
7774;BME280;3931;42.260;23.116;2023-02-13T09:19:08;97394.66;;;10.25;56.40
7774;BME280;3931;42.260;23.116;2023-02-13T09:21:34;97391.28;;;10.70;57.01
7774;BME280;3931;42.260;23.116;2023-02-13T09:24:00;97402.06;;;12.06;51.85
7774;BME280;3931;42.260;23.116;2023-02-13T09:26:26;97410.03;;;11.68;49.81
7774;BME280;3931;42.260;23.116;2023-02-13T09:28:53;97401.41;;;12.81;50.59
7774;BME280;3931;42.260;23.116;2023-02-13T09:31:20;97397.44;;;12.82;48.58
7774;BME280;3931;42.260;23.116;2023-02-13T09:33:47;97403.63;;;12.24;49.04
7774;BME280;3931;42.260;23.116;2023-02-13T09:36:14;97394.69;;;13.44;47.38
7774;BME280;3931;42.260;23.116;2023-02-13T09:38:41;97389.13;;;13.88;45.61
7774;BME280;3931;42.260;23.116;2023-02-13T09:41:12;97388.69;;;13.49;46.45
7774;BME280;3931;42.260;23.116;2023-02-13T09:43:43;97383.78;;;13.67;46.90
7774;BME280;3931;42.260;23.116;2023-02-13T09:46:15;97384.69;;;12.92;47.34
7774;BME280;3931;42.260;23.116;2023-02-13T09:48:46;97389.69;;;12.42;48.27
7774;BME280;3931;42.260;23.116;2023-02-13T09:51:14;97383.84;;;13.60;47.61
7774;BME280;3931;42.260;23.116;2023-02-13T09:53:41;97379.78;;;14.50;45.47
7774;BME280;3931;42.260;23.116;2023-02-13T09:56:15;97371.44;;;14.46;45.05
7774;BME280;3931;42.260;23.116;2023-02-13T09:58:47;97375.41;;;14.79;44.00
7774;BME280;3931;42.260;23.116;2023-02-13T10:01:20;97371.31;;;15.41;43.08
7774;BME280;3931;42.260;23.116;2023-02-13T10:03:59;97369.22;;;13.94;44.90
7774;BME280;3931;42.260;23.116;2023-02-13T10:06:31;97365.56;;;14.00;44.87
7774;BME280;3931;42.260;23.116;2023-02-13T10:09:06;97357.41;;;13.35;46.22
7774;BME280;3931;42.260;23.116;2023-02-13T10:11:56;97350.63;;;13.43;45.45
7774;BME280;3931;42.260;23.116;2023-02-13T10:14:30;97347.22;;;14.43;45.28
7774;BME280;3931;42.260;23.116;2023-02-13T10:17:01;97343.03;;;15.42;43.69
7774;BME280;3931;42.260;23.116;2023-02-13T10:19:34;97333.41;;;14.33;44.00
7774;BME280;3931;42.260;23.116;2023-02-13T10:22:04;97334.63;;;14.92;43.67
7774;BME280;3931;42.260;23.116;2023-02-13T10:24:34;97330.47;;;14.77;43.40
7774;BME280;3931;42.260;23.116;2023-02-13T10:27:15;97325.03;;;14.93;43.49
7774;BME280;3931;42.260;23.116;2023-02-13T10:29:45;97322.56;;;14.42;44.11
7774;BME280;3931;42.260;23.116;2023-02-13T10:32:37;97318.97;;;14.08;44.01
7774;BME280;3931;42.260;23.116;2023-02-13T10:35:17;97310.53;;;13.81;44.30
7774;BME280;3931;42.260;23.116;2023-02-13T10:37:44;97300.28;;;14.72;43.61
7774;BME280;3931;42.260;23.116;2023-02-13T10:40:16;97301.72;;;14.53;44.39
7774;BME280;3931;42.260;23.116;2023-02-13T10:42:44;97292.91;;;14.28;44.56
7774;BME280;3931;42.260;23.116;2023-02-13T10:45:25;97292.19;;;15.08;43.63
7774;BME280;3931;42.260;23.116;2023-02-13T10:48:04;97289.50;;;15.01;43.53
7774;BME280;3931;42.260;23.116;2023-02-13T10:50:36;97275.69;;;13.66;44.88
7774;BME280;3931;42.260;23.116;2023-02-13T10:53:12;97275.03;;;13.92;45.61
7774;BME280;3931;42.260;23.116;2023-02-13T10:55:58;97271.53;;;13.47;46.02
7774;BME280;3931;42.260;23.116;2023-02-13T10:58:30;97267.25;;;13.76;45.55
7774;BME280;3931;42.260;23.116;2023-02-13T11:01:04;97254.91;;;13.81;45.71
7774;BME280;3931;42.260;23.116;2023-02-13T11:03:33;97252.75;;;14.56;44.26
7774;BME280;3931;42.260;23.116;2023-02-13T11:06:05;97245.19;;;14.83;44.18
7774;BME280;3931;42.260;23.116;2023-02-13T11:08:34;97246.91;;;13.83;45.01
7774;BME280;3931;42.260;23.116;2023-02-13T11:11:03;97246.34;;;14.59;44.58
7774;BME280;3931;42.260;23.116;2023-02-13T11:13:29;97247.03;;;14.67;43.87
7774;BME280;3931;42.260;23.116;2023-02-13T11:16:00;97243.88;;;14.65;44.66
7774;BME280;3931;42.260;23.116;2023-02-13T11:18:29;97242.44;;;14.23;44.67
7774;BME280;3931;42.260;23.116;2023-02-13T11:21:00;97239.59;;;15.10;43.41
7774;BME280;3931;42.260;23.116;2023-02-13T11:23:37;97235.84;;;14.70;42.97
7774;BME280;3931;42.260;23.116;2023-02-13T11:26:06;97230.66;;;14.42;44.16
7774;BME280;3931;42.260;23.116;2023-02-13T11:28:37;97222.81;;;14.64;43.77
7774;BME280;3931;42.260;23.116;2023-02-13T11:31:12;97221.13;;;14.43;44.71
7774;BME280;3931;42.260;23.116;2023-02-13T11:33:39;97214.72;;;15.19;42.07
7774;BME280;3931;42.260;23.116;2023-02-13T11:36:08;97210.97;;;15.52;42.55
7774;BME280;3931;42.260;23.116;2023-02-13T11:38:34;97202.41;;;14.93;42.44
7774;BME280;3931;42.260;23.116;2023-02-13T11:41:06;97202.00;;;14.45;43.60
7774;BME280;3931;42.260;23.116;2023-02-13T11:43:35;97199.56;;;14.74;43.21
7774;BME280;3931;42.260;23.116;2023-02-13T11:46:03;97206.97;;;15.53;42.55
7774;BME280;3931;42.260;23.116;2023-02-13T11:48:30;97198.38;;;15.44;42.17
7774;BME280;3931;42.260;23.116;2023-02-13T11:50:57;97187.09;;;15.28;42.44
7774;BME280;3931;42.260;23.116;2023-02-13T11:53:26;97192.94;;;14.64;43.74
7774;BME280;3931;42.260;23.116;2023-02-13T11:56:04;97192.44;;;15.19;42.71
7774;BME280;3931;42.260;23.116;2023-02-13T11:58:31;97182.06;;;16.01;41.82
7774;BME280;3931;42.260;23.116;2023-02-13T12:01:09;97169.13;;;15.29;42.17
7774;BME280;3931;42.260;23.116;2023-02-13T12:03:35;97153.47;;;15.97;42.12
7774;BME280;3931;42.260;23.116;2023-02-13T12:06:05;97150.38;;;16.80;40.55
7774;BME280;3931;42.260;23.116;2023-02-13T12:08:39;97151.06;;;17.44;39.18
7774;BME280;3931;42.260;23.116;2023-02-13T12:11:15;97141.91;;;16.67;40.10
7774;BME280;3931;42.260;23.116;2023-02-13T12:13:46;97144.00;;;16.95;39.35
7774;BME280;3931;42.260;23.116;2023-02-13T12:16:23;97135.34;;;15.86;40.68
7774;BME280;3931;42.260;23.116;2023-02-13T12:18:53;97127.94;;;16.15;41.20
7774;BME280;3931;42.260;23.116;2023-02-13T12:21:31;97130.88;;;15.10;41.43
7774;BME280;3931;42.260;23.116;2023-02-13T12:24:12;97120.41;;;16.12;40.53
7774;BME280;3931;42.260;23.116;2023-02-13T12:26:45;97115.38;;;15.87;40.77
7774;BME280;3931;42.260;23.116;2023-02-13T12:29:38;97112.38;;;15.39;41.33
7774;BME280;3931;42.260;23.116;2023-02-13T12:32:17;97104.84;;;15.95;40.89
7774;BME280;3931;42.260;23.116;2023-02-13T12:35:13;97100.78;;;15.99;39.97
7774;BME280;3931;42.260;23.116;2023-02-13T12:37:54;97108.13;;;15.54;40.22
7774;BME280;3931;42.260;23.116;2023-02-13T12:40:33;97093.38;;;15.73;40.56
7774;BME280;3931;42.260;23.116;2023-02-13T12:43:20;97091.16;;;15.45;40.70
7774;BME280;3931;42.260;23.116;2023-02-13T12:45:53;97091.78;;;16.60;38.92
7774;BME280;3931;42.260;23.116;2023-02-13T12:48:33;97092.91;;;15.35;39.66
7774;BME280;3931;42.260;23.116;2023-02-13T12:51:14;97088.16;;;15.91;40.10
7774;BME280;3931;42.260;23.116;2023-02-13T12:54:04;97099.38;;;14.67;41.48
7774;BME280;3931;42.260;23.116;2023-02-13T12:56:44;97087.50;;;15.68;39.86
7774;BME280;3931;42.260;23.116;2023-02-13T12:59:19;97081.28;;;15.60;39.43
7774;BME280;3931;42.260;23.116;2023-02-13T13:04:48;97071.88;;;16.58;38.69
7774;BME280;3931;42.260;23.116;2023-02-13T13:07:45;97074.25;;;16.08;38.85
7774;BME280;3931;42.260;23.116;2023-02-13T13:10:30;97074.31;;;15.09;39.75
7774;BME280;3931;42.260;23.116;2023-02-13T13:13:07;97070.22;;;14.94;40.14
7774;BME280;3931;42.260;23.116;2023-02-13T13:15:39;97060.78;;;15.86;39.40
7774;BME280;3931;42.260;23.116;2023-02-13T13:18:19;97061.19;;;16.04;39.42
7774;BME280;3931;42.260;23.116;2023-02-13T13:21:01;97058.63;;;16.91;37.77
7774;BME280;3931;42.260;23.116;2023-02-13T13:23:32;97056.16;;;15.96;37.42
7774;BME280;3931;42.260;23.116;2023-02-13T13:26:07;97052.53;;;15.63;38.12
7774;BME280;3931;42.260;23.116;2023-02-13T13:28:38;97047.78;;;15.96;36.97
7774;BME280;3931;42.260;23.116;2023-02-13T13:31:06;97062.81;;;15.27;37.75
7774;BME280;3931;42.260;23.116;2023-02-13T13:33:34;97045.41;;;15.78;37.61
7774;BME280;3931;42.260;23.116;2023-02-13T13:36:04;97048.78;;;16.05;37.03
7774;BME280;3931;42.260;23.116;2023-02-13T13:38:41;97045.53;;;15.55;38.06
7774;BME280;3931;42.260;23.116;2023-02-13T13:41:14;97046.84;;;15.86;37.29
7774;BME280;3931;42.260;23.116;2023-02-13T13:43:58;97045.72;;;15.25;37.62
7774;BME280;3931;42.260;23.116;2023-02-13T13:46:32;97039.75;;;15.46;37.70
7774;BME280;3931;42.260;23.116;2023-02-13T13:49:13;97032.47;;;16.04;37.14